Time;durP1;ratioP1;P1;durP2;ratioP2;P2;SDS_P1;SDS_P2;PMS_P1;PMS_P2;Temp;Humidity;BMP_temperature;BMP_pressure;BME280_temperature;BME280_humidity;BME280_pressure;Samples;Min_cycle;Max_cycle;Signal;HPM_P1;HPM_P2
2022/08/13 00:01:51;;;;;;;1.33;1.23;;;18.50;82.60;;;;;;5012413;28;20714;-65
2022/08/13 00:04:18;;;;;;;3.55;1.23;;;18.30;83.40;;;;;;5012319;28;20210;-64
2022/08/13 00:07:06;;;;;;;2.15;1.17;;;18.20;83.80;;;;;;5012244;28;20250;-64
2022/08/13 00:09:34;;;;;;;1.33;1.10;;;18.10;84.40;;;;;;5011920;28;20222;-64
2022/08/13 00:14:46;;;;;;;1.95;1.30;;;18.20;84.00;;;;;;5012175;28;20635;-64
2022/08/13 00:17:17;;;;;;;2.13;1.08;;;18.30;83.50;;;;;;5012212;28;20215;-64
2022/08/13 00:19:46;;;;;;;2.92;1.38;;;18.40;83.30;;;;;;5012128;28;20526;-64
2022/08/13 00:22:14;;;;;;;2.60;1.20;;;18.40;83.50;;;;;;5011800;28;20285;-65
2022/08/13 00:24:41;;;;;;;1.13;1.02;;;18.30;83.40;;;;;;5012349;28;20290;-64
2022/08/13 00:27:08;;;;;;;2.63;1.10;;;18.40;84.80;;;;;;5011987;28;20486;-64
2022/08/13 00:29:37;;;;;;;4.15;1.33;;;18.30;84.50;;;;;;5012328;28;20211;-65
2022/08/13 00:32:04;;;;;;;3.17;1.10;;;18.30;84.30;;;;;;5011472;28;20226;-64
2022/08/13 00:34:32;;;;;;;2.15;1.25;;;18.30;84.70;;;;;;5012036;28;20234;-64
2022/08/13 00:36:59;;;;;;;3.08;1.50;;;18.30;85.40;;;;;;5011908;28;20215;-64
2022/08/13 00:39:25;;;;;;;3.65;1.25;;;18.40;84.90;;;;;;5011834;28;20213;-65
2022/08/13 00:41:52;;;;;;;2.67;1.23;;;18.30;85.10;;;;;;5011846;28;20231;-64
2022/08/13 00:44:19;;;;;;;2.63;1.33;;;18.30;85.30;;;;;;5011758;28;20601;-65
2022/08/13 00:46:46;;;;;;;2.03;1.20;;;18.20;85.50;;;;;;5012030;28;20213;-65
2022/08/13 00:49:13;;;;;;;3.63;1.10;;;18.20;85.90;;;;;;5011704;28;20215;-64
2022/08/13 00:51:44;;;;;;;1.38;1.27;;;18.10;86.00;;;;;;5011582;28;20511;-64
2022/08/13 00:54:13;;;;;;;2.58;0.98;;;18.00;86.90;;;;;;5011624;28;20217;-66
2022/08/13 00:56:41;;;;;;;1.80;1.20;;;17.90;88.00;;;;;;5011925;28;20219;-66
2022/08/13 00:59:12;;;;;;;1.30;1.20;;;17.80;88.70;;;;;;5012284;28;20211;-64
2022/08/13 01:01:39;;;;;;;2.60;0.90;;;17.70;89.60;;;;;;5011646;28;20249;-64
2022/08/13 01:04:07;;;;;;;1.88;1.33;;;17.60;90.10;;;;;;5011784;28;20285;-65
2022/08/13 01:06:35;;;;;;;2.38;1.13;;;17.50;90.30;;;;;;5011716;28;20298;-64
2022/08/13 01:09:04;;;;;;;1.40;1.30;;;17.40;90.90;;;;;;5011965;28;20303;-64
2022/08/13 01:11:33;;;;;;;1.55;1.00;;;17.20;91.20;;;;;;5011349;28;20254;-65
2022/08/13 01:14:03;;;;;;;2.15;1.15;;;17.30;91.50;;;;;;5011733;28;20294;-65
2022/08/13 01:16:36;;;;;;;3.47;1.58;;;17.20;92.00;;;;;;5011444;28;20597;-65
2022/08/13 01:19:06;;;;;;;2.65;1.27;;;17.10;92.20;;;;;;5011504;28;20207;-65
2022/08/13 01:21:36;;;;;;;2.65;1.27;;;17.00;92.50;;;;;;5012472;28;20670;-65
2022/08/13 01:24:04;;;;;;;1.30;1.15;;;17.00;92.80;;;;;;5015232;28;20261;-65
2022/08/13 01:26:32;;;;;;;2.13;1.25;;;16.90;93.00;;;;;;5014966;28;20729;-65
2022/08/13 01:29:01;;;;;;;2.83;1.38;;;16.90;93.10;;;;;;5015136;28;20267;-65
2022/08/13 01:31:28;;;;;;;1.70;1.40;;;16.80;93.30;;;;;;5014407;28;20297;-65
2022/08/13 01:33:59;;;;;;;2.45;1.30;;;16.90;93.70;;;;;;5015030;28;20272;-65
2022/08/13 01:36:26;;;;;;;1.55;1.23;;;16.80;93.80;;;;;;5014903;28;20301;-65
2022/08/13 01:38:57;;;;;;;1.67;1.23;;;16.80;94.10;;;;;;5014827;28;20269;-65
2022/08/13 01:41:26;;;;;;;1.30;1.20;;;16.70;94.60;;;;;;5014469;28;20620;-65
2022/08/13 01:44:01;;;;;;;5.90;1.30;;;16.60;95.00;;;;;;5014633;28;20679;-65
2022/08/13 01:50:28;;;;;;;2.90;1.50;;;16.50;95.40;;;;;;5014497;28;20321;-65
2022/08/13 01:52:00;;;;;;;2.85;1.50;;;16.40;96.40;;;;;;5014125;28;20362;-65
2022/08/13 01:54:28;;;;;;;2.92;1.30;;;16.30;96.70;;;;;;5014418;28;20211;-65
2022/08/13 01:56:59;;;;;;;1.27;1.13;;;16.30;97.00;;;;;;5014447;28;20684;-64
2022/08/13 01:59:26;;;;;;;3.20;1.20;;;16.20;97.10;;;;;;5014533;28;20207;-65
2022/08/13 02:01:53;;;;;;;2.07;1.50;;;16.30;97.40;;;;;;5014157;28;20230;-65
2022/08/13 02:04:21;;;;;;;1.73;1.30;;;16.20;97.50;;;;;;5014254;28;20206;-65
2022/08/13 02:06:48;;;;;;;1.73;1.20;;;16.20;98.10;;;;;;5014233;28;20207;-65
2022/08/13 02:09:15;;;;;;;1.27;1.17;;;16.10;98.60;;;;;;5014133;28;20206;-64
2022/08/13 02:11:43;;;;;;;1.40;1.30;;;16.00;99.00;;;;;;5013940;28;20223;-64
2022/08/13 02:14:11;;;;;;;1.83;1.20;;;15.90;99.50;;;;;;5014540;28;20213;-64
2022/08/13 02:16:38;;;;;;;3.47;1.23;;;15.90;99.80;;;;;;5014162;28;20203;-64
2022/08/13 02:19:07;;;;;;;1.57;1.30;;;15.80;99.90;;;;;;5014440;28;20211;-64
2022/08/13 02:21:36;;;;;;;1.10;1.00;;;15.80;99.90;;;;;;5013586;28;20215;-64
2022/08/13 02:24:08;;;;;;;1.93;1.30;;;15.90;99.90;;;;;;5014123;28;20211;-64
2022/08/13 02:26:37;;;;;;;1.83;1.30;;;15.80;99.90;;;;;;5013818;28;20207;-64
2022/08/13 02:29:07;;;;;;;2.30;1.47;;;15.90;99.90;;;;;;5013957;28;20207;-64
2022/08/13 02:31:35;;;;;;;1.40;1.30;;;15.90;99.90;;;;;;5013496;28;20261;-64
2022/08/13 02:34:02;;;;;;;1.40;1.30;;;15.90;99.90;;;;;;5013282;28;20721;-64
2022/08/13 02:36:30;;;;;;;2.20;1.25;;;15.90;99.90;;;;;;5013586;28;20683;-66
2022/08/13 02:38:57;;;;;;;1.50;1.27;;;15.90;99.90;;;;;;5013791;28;20215;-64
2022/08/13 02:41:40;;;;;;;2.07;1.47;;;15.80;99.90;;;;;;5013164;28;20218;-64
2022/08/13 02:44:11;;;;;;;3.67;2.00;;;15.80;99.90;;;;;;5013450;28;20229;-64
2022/08/13 02:46:38;;;;;;;2.03;1.50;;;15.80;99.90;;;;;;5013429;28;20290;-64
2022/08/13 02:49:04;;;;;;;2.43;1.73;;;15.80;99.90;;;;;;5013624;28;20637;-66
2022/08/13 02:51:32;;;;;;;1.77;1.57;;;15.70;99.90;;;;;;5013051;28;20671;-64
2022/08/13 02:54:00;;;;;;;2.40;1.70;;;15.70;99.90;;;;;;5013282;28;20923;-64
2022/08/13 02:56:27;;;;;;;2.03;1.40;;;15.60;99.90;;;;;;5013181;28;20737;-64
2022/08/13 02:58:54;;;;;;;2.23;1.60;;;15.60;99.90;;;;;;5013224;28;20248;-64
2022/08/13 03:01:23;;;;;;;2.83;1.70;;;15.50;99.90;;;;;;5012669;28;20210;-64
2022/08/13 03:03:50;;;;;;;2.00;1.40;;;15.50;99.90;;;;;;5013565;28;20568;-64
2022/08/13 03:06:19;;;;;;;1.50;1.37;;;15.40;99.90;;;;;;5013279;28;20206;-64
2022/08/13 03:08:48;;;;;;;2.97;1.40;;;15.40;99.90;;;;;;5013169;28;20210;-65
2022/08/13 03:11:15;;;;;;;1.97;1.50;;;15.30;99.90;;;;;;5012823;28;20211;-64
2022/08/13 03:13:44;;;;;;;1.20;1.10;;;15.30;99.90;;;;;;5012795;28;20227;-64
2022/08/13 03:16:15;;;;;;;2.87;1.43;;;15.30;99.90;;;;;;5012840;28;20671;-64
2022/08/13 03:18:43;;;;;;;2.50;1.60;;;15.40;99.90;;;;;;5013033;28;20207;-64
2022/08/13 03:21:10;;;;;;;1.87;1.40;;;15.40;99.90;;;;;;5012963;28;20214;-64
2022/08/13 03:23:37;;;;;;;2.60;1.53;;;15.50;99.90;;;;;;5012805;28;20326;-65
2022/08/13 03:26:04;;;;;;;1.37;1.27;;;15.50;99.90;;;;;;5012956;28;20210;-64
2022/08/13 03:28:30;;;;;;;1.73;1.50;;;15.50;99.90;;;;;;5012734;28;20574;-64
2022/08/13 03:30:57;;;;;;;2.10;1.60;;;15.50;99.90;;;;;;5013216;28;20273;-64
2022/08/13 03:33:24;;;;;;;2.00;1.37;;;15.60;99.90;;;;;;5012458;28;20235;-64
2022/08/13 03:35:52;;;;;;;1.40;1.30;;;15.60;99.90;;;;;;5012815;28;20214;-64
2022/08/13 03:38:19;;;;;;;1.93;1.57;;;15.60;99.90;;;;;;5012707;28;20269;-64
2022/08/13 03:41:11;;;;;;;1.57;1.30;;;15.60;99.90;;;;;;5012455;28;20210;-64
2022/08/13 03:43:42;;;;;;;1.30;1.20;;;15.60;99.90;;;;;;5012258;28;20230;-65
2022/08/13 03:46:09;;;;;;;2.33;1.60;;;15.60;99.90;;;;;;5012372;28;20238;-65
2022/08/13 03:48:36;;;;;;;2.90;1.53;;;15.60;99.90;;;;;;5012587;28;20294;-64
2022/08/13 03:51:05;;;;;;;3.00;1.80;;;15.70;99.90;;;;;;5012696;28;20207;-64
2022/08/13 03:53:31;;;;;;;4.83;1.83;;;15.60;99.90;;;;;;5011983;28;20234;-65
2022/08/13 03:55:58;;;;;;;3.37;1.30;;;15.60;99.90;;;;;;5012465;28;20568;-65
2022/08/13 03:58:26;;;;;;;2.00;1.47;;;15.60;99.90;;;;;;5012438;28;20285;-65
2022/08/13 04:00:53;;;;;;;1.37;1.27;;;15.50;99.90;;;;;;5012295;28;20215;-64
2022/08/13 04:03:22;;;;;;;2.30;1.60;;;15.50;99.90;;;;;;5052300;22;20244;-61
2022/08/13 04:05:54;;;;;;;3.67;1.47;;;15.50;99.90;;;;;;5053896;28;20236;-61
2022/08/13 04:08:22;;;;;;;2.00;1.53;;;15.50;99.90;;;;;;5054742;28;20558;-61
2022/08/13 04:10:49;;;;;;;2.10;1.63;;;15.50;99.90;;;;;;5055798;28;20262;-61
2022/08/13 04:13:17;;;;;;;2.70;1.70;;;15.50;99.90;;;;;;5068964;28;20225;-61
2022/08/13 04:15:44;;;;;;;3.13;1.57;;;15.50;99.90;;;;;;5075673;28;20300;-61
2022/08/13 04:18:12;;;;;;;1.60;1.50;;;15.50;99.90;;;;;;5074718;28;20205;-61
2022/08/13 04:20:40;;;;;;;3.40;1.50;;;15.50;99.90;;;;;;5075033;28;20204;-61
2022/08/13 04:23:14;;;;;;;2.97;1.50;;;15.50;99.90;;;;;;5074796;28;20217;-61
2022/08/13 04:25:42;;;;;;;1.70;1.60;;;15.50;99.90;;;;;;5074504;28;20216;-61
2022/08/13 04:28:11;;;;;;;1.90;1.50;;;15.50;99.90;;;;;;5074636;28;20235;-61
2022/08/13 04:30:40;;;;;;;2.00;1.80;;;15.50;99.90;;;;;;5075307;28;20621;-61
2022/08/13 04:33:11;;;;;;;3.67;1.70;;;15.50;99.90;;;;;;5073897;28;20224;-61
2022/08/13 04:35:38;;;;;;;2.30;1.60;;;15.50;99.90;;;;;;5074766;28;20292;-61
2022/08/13 04:38:06;;;;;;;1.70;1.60;;;15.40;99.90;;;;;;5074584;28;20231;-61
2022/08/13 04:40:34;;;;;;;1.43;1.33;;;15.40;99.90;;;;;;5074367;28;20239;-62
2022/08/13 04:43:04;;;;;;;4.40;1.60;;;15.40;99.90;;;;;;5073995;28;20604;-61
2022/08/13 04:45:31;;;;;;;2.63;1.70;;;15.50;99.90;;;;;;5075078;28;20684;-61
2022/08/13 04:47:59;;;;;;;2.30;1.67;;;15.50;99.90;;;;;;5073921;28;20209;-61
2022/08/13 04:50:29;;;;;;;2.00;1.53;;;15.40;99.90;;;;;;5074546;28;20205;-61
2022/08/13 04:52:56;;;;;;;3.83;1.87;;;15.50;99.90;;;;;;5073947;28;20224;-61
2022/08/13 04:55:23;;;;;;;3.13;1.87;;;15.60;99.90;;;;;;5074909;28;20208;-61
2022/08/13 04:57:50;;;;;;;1.50;1.40;;;15.60;99.90;;;;;;5077891;28;20212;-61
2022/08/13 05:00:20;;;;;;;1.90;1.80;;;15.70;99.90;;;;;;5077618;28;20599;-61
2022/08/13 05:02:47;;;;;;;3.50;1.60;;;15.80;99.90;;;;;;5076799;28;20786;-61
2022/08/13 05:05:14;;;;;;;2.87;1.87;;;15.80;99.90;;;;;;5077367;28;20287;-61
2022/08/13 05:07:49;;;;;;;1.73;1.60;;;15.90;99.90;;;;;;5077330;28;20212;-61
2022/08/13 05:10:16;;;;;;;2.20;1.80;;;15.90;99.90;;;;;;5076851;28;20204;-61
2022/08/13 05:12:43;;;;;;;2.50;1.90;;;16.00;99.90;;;;;;5076599;28;20294;-61
2022/08/13 05:15:12;;;;;;;5.43;2.00;;;16.00;99.90;;;;;;5076951;28;20262;-61
2022/08/13 05:17:40;;;;;;;3.23;1.70;;;16.10;99.90;;;;;;5076307;28;20691;-61
2022/08/13 05:20:13;;;;;;;2.77;2.07;;;16.00;99.90;;;;;;5076467;28;20201;-61
2022/08/13 05:22:40;;;;;;;2.10;1.90;;;16.10;99.90;;;;;;5077187;28;20274;-61
2022/08/13 05:25:07;;;;;;;1.83;1.70;;;16.10;99.90;;;;;;5076927;28;20216;-61
2022/08/13 05:27:34;;;;;;;5.17;1.90;;;16.20;99.90;;;;;;5076739;28;20217;-62
2022/08/13 05:30:02;;;;;;;2.33;1.90;;;16.30;99.90;;;;;;5075735;28;20201;-61
2022/08/13 05:32:29;;;;;;;2.00;1.80;;;16.40;99.90;;;;;;5076088;28;20235;-62
2022/08/13 05:34:59;;;;;;;9.23;1.90;;;16.50;99.90;;;;;;5075878;28;20208;-61
2022/08/13 05:37:26;;;;;;;2.45;1.90;;;16.60;99.90;;;;;;5075879;28;20220;-61
2022/08/13 05:39:52;;;;;;;2.17;1.90;;;16.70;99.90;;;;;;5076186;28;20549;-61
2022/08/13 05:42:19;;;;;;;4.00;1.67;;;16.90;99.90;;;;;;5075713;28;20231;-61
2022/08/13 05:44:47;;;;;;;2.20;1.77;;;17.80;99.90;;;;;;5076078;28;20240;-61
2022/08/13 05:47:14;;;;;;;3.08;1.70;;;19.70;99.90;;;;;;5076208;28;20205;-62
2022/08/13 05:49:41;;;;;;;3.60;1.55;;;21.90;96.60;;;;;;5076257;28;20258;-61
2022/08/13 05:52:11;;;;;;;1.65;1.52;;;24.10;91.90;;;;;;5075821;28;20240;-62
2022/08/13 05:54:39;;;;;;;2.25;1.63;;;26.10;83.30;;;;;;5075911;28;20236;-62
2022/08/13 05:57:06;;;;;;;2.85;1.70;;;26.70;73.80;;;;;;5076307;28;20209;-61
2022/08/13 06:05:02;;;;;;;5.32;2.10;;;28.80;64.10;;;;;;5075264;28;20278;-61
2022/08/13 06:07:31;;;;;;;3.53;2.33;;;30.30;59.90;;;;;;5075158;28;20308;-62
2022/08/13 06:09:58;;;;;;;6.22;3.38;;;31.10;57.00;;;;;;5075268;28;20215;-62
2022/08/13 06:12:25;;;;;;;3.22;1.83;;;32.10;54.70;;;;;;5074524;28;20229;-63
2022/08/13 06:14:56;;;;;;;2.50;1.60;;;32.90;52.00;;;;;;5075428;28;20267;-62
2022/08/13 06:17:24;;;;;;;2.20;1.73;;;33.00;50.30;;;;;;5076113;28;20205;-63
2022/08/13 06:19:52;;;;;;;3.88;1.30;;;31.60;52.80;;;;;;5075979;28;20201;-61
2022/08/13 06:22:20;;;;;;;2.45;1.77;;;31.40;53.40;;;;;;5075017;28;20719;-62
2022/08/13 06:24:50;;;;;;;5.43;2.40;;;32.20;52.10;;;;;;5075637;28;20204;-62
2022/08/13 06:27:17;;;;;;;4.35;1.65;;;33.20;51.00;;;;;;5075181;28;20244;-63
2022/08/13 06:29:46;;;;;;;1.50;1.40;;;33.50;48.90;;;;;;5075425;28;20232;-63
2022/08/13 06:32:15;;;;;;;6.80;1.58;;;32.30;50.60;;;;;;5074879;28;20225;-62
2022/08/13 06:34:43;;;;;;;1.65;1.50;;;31.90;51.10;;;;;;5074933;28;20228;-63
2022/08/13 06:37:11;;;;;;;3.90;1.60;;;31.20;52.80;;;;;;5075280;28;20205;-63
2022/08/13 06:39:38;;;;;;;2.95;1.30;;;31.50;52.30;;;;;;5074871;28;20209;-63
2022/08/13 06:42:06;;;;;;;1.95;1.50;;;32.40;51.40;;;;;;5074472;28;20208;-63
2022/08/13 06:44:34;;;;;;;3.10;2.15;;;33.60;49.40;;;;;;5075041;28;20204;-63
2022/08/13 06:47:03;;;;;;;2.78;1.85;;;34.90;47.10;;;;;;5074686;28;20306;-63
2022/08/13 06:49:30;;;;;;;1.58;1.42;;;35.80;46.00;;;;;;5074098;28;20688;-70
2022/08/13 06:51:58;;;;;;;4.10;1.40;;;36.10;44.80;;;;;;5070666;28;20498;-65
2022/08/13 06:54:25;;;;;;;2.42;1.35;;;35.10;46.70;;;;;;5071953;28;20311;-66
2022/08/13 06:56:53;;;;;;;3.67;2.60;;;35.80;45.50;;;;;;5073944;28;20201;-63
2022/08/13 06:59:24;;;;;;;4.15;1.42;;;37.00;43.50;;;;;;5075173;28;20539;-64
2022/08/13 07:02:01;;;;;;;3.45;1.38;;;37.80;42.10;;;;;;5075048;28;20270;-62
2022/08/13 07:04:28;;;;;;;3.70;1.70;;;38.60;41.00;;;;;;5075599;28;20205;-64
2022/08/13 07:06:56;;;;;;;4.28;1.55;;;39.00;39.80;;;;;;5074772;28;20205;-60
2022/08/13 07:09:24;;;;;;;6.65;2.05;;;38.60;40.40;;;;;;5074214;28;20613;-60
2022/08/13 07:11:51;;;;;;;2.55;1.23;;;38.30;40.40;;;;;;5073699;28;20204;-60
2022/08/13 07:14:18;;;;;;;2.15;1.55;;;37.10;41.60;;;;;;5073824;28;20255;-59
2022/08/13 07:16:47;;;;;;;2.22;1.38;;;36.10;42.90;;;;;;5073994;28;20232;-60
2022/08/13 07:19:14;;;;;;;7.65;1.40;;;36.60;43.10;;;;;;5072791;28;20220;-60
2022/08/13 07:21:42;;;;;;;2.50;1.30;;;37.20;41.70;;;;;;5073755;28;20212;-60
2022/08/13 07:24:10;;;;;;;3.67;1.30;;;37.90;40.90;;;;;;5074494;28;20233;-60
2022/08/13 07:26:37;;;;;;;2.20;1.98;;;38.90;39.80;;;;;;5074094;28;20715;-60
2022/08/13 07:29:06;;;;;;;2.10;1.52;;;39.70;38.90;;;;;;5074614;28;20216;-60
2022/08/13 07:31:39;;;;;;;3.53;1.52;;;40.50;38.20;;;;;;5074550;28;20215;-60
2022/08/13 07:34:09;;;;;;;3.35;1.40;;;41.20;37.40;;;;;;5074792;28;20224;-61
2022/08/13 07:36:38;;;;;;;3.53;1.10;;;41.90;37.00;;;;;;5075403;28;20541;-66
2022/08/13 07:39:08;;;;;;;3.22;1.23;;;42.50;35.60;;;;;;5074995;28;20216;-62
2022/08/13 07:41:39;;;;;;;3.38;1.52;;;42.40;35.50;;;;;;5074052;28;20612;-58
2022/08/13 07:44:09;;;;;;;3.47;1.70;;;42.60;35.30;;;;;;5072938;28;20278;-59
2022/08/13 07:46:42;;;;;;;1.20;1.10;;;43.10;34.90;;;;;;5073050;28;20204;-59
2022/08/13 07:49:12;;;;;;;2.08;1.27;;;43.70;34.20;;;;;;5073512;28;20254;-59
2022/08/13 07:51:40;;;;;;;1.73;1.25;;;43.90;33.70;;;;;;5073440;28;20205;-58
2022/08/13 07:54:08;;;;;;;3.58;1.10;;;43.70;33.70;;;;;;5073094;28;20692;-58
2022/08/13 07:56:35;;;;;;;4.15;1.70;;;43.70;33.60;;;;;;5072952;28;20208;-58
2022/08/13 07:59:04;;;;;;;2.95;1.15;;;43.40;34.00;;;;;;5072957;28;20208;-58
2022/08/13 08:01:33;;;;;;;3.10;1.20;;;41.80;35.30;;;;;;5073308;28;20660;-58
2022/08/13 08:04:04;;;;;;;4.45;1.17;;;40.60;36.40;;;;;;5072587;28;20618;-58
2022/08/13 08:06:33;;;;;;;1.40;1.10;;;40.00;37.00;;;;;;5072883;28;20211;-58
2022/08/13 08:09:00;;;;;;;1.83;1.20;;;38.60;38.70;;;;;;5072906;28;20208;-58
2022/08/13 08:14:12;;;;;;;2.22;1.50;;;37.40;40.00;;;;;;5072959;28;20311;-58
2022/08/13 08:16:45;;;;;;;3.28;1.10;;;37.60;39.90;;;;;;5073010;28;20216;-58
2022/08/13 08:19:16;;;;;;;4.10;1.15;;;38.10;38.70;;;;;;5073080;28;20289;-58
2022/08/13 08:21:44;;;;;;;2.80;1.23;;;38.10;38.60;;;;;;5072729;28;20205;-58
2022/08/13 08:24:13;;;;;;;1.10;1.00;;;37.60;39.30;;;;;;5072964;28;20204;-58
2022/08/13 08:26:41;;;;;;;1.65;1.10;;;37.40;39.30;;;;;;5073168;28;20555;-58
2022/08/13 08:29:10;;;;;;;4.20;1.40;;;37.00;39.60;;;;;;5072652;28;20209;-59
2022/08/13 08:31:40;;;;;;;1.73;1.10;;;36.60;40.00;;;;;;5075997;28;20244;-59
2022/08/13 08:34:08;;;;;;;2.63;1.60;;;36.20;40.90;;;;;;5076480;28;20220;-59
2022/08/13 08:36:39;;;;;;;2.28;1.17;;;35.50;41.80;;;;;;5076599;28;20208;-59
2022/08/13 08:44:41;;;;;;;1.92;1.50;;;33.00;45.30;;;;;;5076801;28;20247;-58
2022/08/13 08:47:08;;;;;;;2.20;1.50;;;32.20;46.20;;;;;;5076797;28;20295;-58
2022/08/13 08:49:36;;;;;;;2.33;1.38;;;31.30;47.80;;;;;;5076819;28;20273;-58
2022/08/13 08:52:04;;;;;;;4.13;1.30;;;30.60;48.90;;;;;;5076310;28;20204;-58
2022/08/13 08:54:33;;;;;;;1.50;1.40;;;30.10;49.90;;;;;;5075915;28;20248;-59
2022/08/13 08:57:01;;;;;;;1.65;1.23;;;29.60;50.10;;;;;;5076077;28;20205;-59
2022/08/13 08:59:30;;;;;;;3.22;1.65;;;29.20;50.70;;;;;;5075926;28;20706;-59
2022/08/13 09:01:57;;;;;;;2.85;1.60;;;28.90;51.40;;;;;;5075873;28;20215;-58
2022/08/13 09:04:28;;;;;;;2.78;1.25;;;28.50;51.80;;;;;;5076332;28;20208;-58
2022/08/13 09:06:57;;;;;;;1.80;1.48;;;28.30;52.50;;;;;;5076168;28;20189;-58
2022/08/13 09:09:25;;;;;;;1.85;1.30;;;28.00;52.90;;;;;;5076035;28;20201;-58
2022/08/13 09:11:55;;;;;;;2.65;1.35;;;28.00;52.10;;;;;;5075614;28;20272;-58
2022/08/13 09:14:25;;;;;;;3.80;1.60;;;28.00;51.90;;;;;;5075473;28;20796;-58
2022/08/13 09:16:54;;;;;;;2.58;1.73;;;27.90;53.70;;;;;;5075570;28;20660;-58
2022/08/13 09:19:21;;;;;;;2.85;1.80;;;27.70;54.70;;;;;;5075708;28;20224;-58
2022/08/13 09:21:49;;;;;;;5.65;1.88;;;27.50;54.90;;;;;;5075153;28;20208;-58
2022/08/13 09:24:16;;;;;;;3.90;1.50;;;27.50;55.40;;;;;;5075347;28;20570;-58
2022/08/13 09:26:47;;;;;;;2.00;1.40;;;27.40;54.90;;;;;;5075221;28;20205;-58
2022/08/13 09:29:18;;;;;;;2.95;1.40;;;27.40;53.40;;;;;;5075327;28;20213;-58
2022/08/13 09:31:47;;;;;;;3.35;1.23;;;27.30;53.40;;;;;;5075267;28;20235;-58
2022/08/13 09:34:14;;;;;;;3.30;1.45;;;27.30;53.40;;;;;;5075147;28;20221;-58
2022/08/13 09:36:42;;;;;;;1.30;1.15;;;27.30;52.30;;;;;;5074787;28;20613;-58
2022/08/13 09:39:09;;;;;;;1.65;1.40;;;27.50;52.80;;;;;;5074771;28;20208;-58
2022/08/13 09:41:40;;;;;;;1.77;1.20;;;27.60;50.70;;;;;;5074786;28;20247;-58
2022/08/13 09:44:07;;;;;;;3.40;1.50;;;27.70;49.90;;;;;;5074721;28;20252;-58
2022/08/13 09:46:35;;;;;;;2.08;1.30;;;27.60;50.80;;;;;;5071847;28;20496;-61
2022/08/13 09:49:08;;;;;;;4.28;1.08;;;27.60;51.10;;;;;;5073662;28;20197;-62
2022/08/13 09:51:35;;;;;;;1.73;1.05;;;27.50;51.00;;;;;;5074065;28;20201;-62
2022/08/13 09:54:02;;;;;;;2.28;1.33;;;27.50;50.70;;;;;;5073859;28;20302;-61
2022/08/13 09:56:30;;;;;;;1.80;1.25;;;27.50;51.20;;;;;;5073638;28;20327;-59
2022/08/13 09:58:56;;;;;;;2.17;1.20;;;27.60;51.40;;;;;;5073951;28;20208;-61
2022/08/13 10:01:24;;;;;;;3.15;1.27;;;27.70;50.70;;;;;;5073623;28;20216;-61
2022/08/13 10:03:52;;;;;;;2.17;1.42;;;27.70;50.80;;;;;;5067528;22;20221;-60
2022/08/13 10:06:19;;;;;;;2.33;1.35;;;27.60;50.80;;;;;;5044689;28;20213;-65
2022/08/13 10:08:47;;;;;;;1.50;1.17;;;27.50;51.40;;;;;;5053028;28;20652;-61
2022/08/13 10:11:14;;;;;;;1.83;1.27;;;27.50;51.30;;;;;;5053019;28;20259;-62
2022/08/13 10:13:41;;;;;;;2.95;1.50;;;27.40;51.30;;;;;;5052555;28;20257;-62
2022/08/13 10:16:07;;;;;;;1.20;1.10;;;27.30;52.10;;;;;;5052802;28;20587;-62
2022/08/13 10:18:34;;;;;;;2.15;1.13;;;27.20;52.00;;;;;;5052598;28;20212;-63
2022/08/13 10:21:02;;;;;;;1.25;1.15;;;27.20;52.20;;;;;;5052970;28;20255;-62
2022/08/13 10:23:30;;;;;;;1.23;1.10;;;27.00;52.20;;;;;;5052582;28;20225;-61
2022/08/13 10:25:57;;;;;;;1.20;1.10;;;26.90;52.50;;;;;;5052247;28;20208;-62
2022/08/13 10:28:27;;;;;;;3.35;1.52;;;26.70;51.70;;;;;;5052632;28;20210;-60
2022/08/13 10:30:55;;;;;;;3.15;1.40;;;26.60;51.90;;;;;;5052543;28;20693;-61
2022/08/13 10:33:23;;;;;;;2.20;1.30;;;26.60;52.00;;;;;;5052090;28;20230;-62
2022/08/13 10:35:55;;;;;;;1.65;1.20;;;26.80;52.10;;;;;;5052561;28;20225;-62
2022/08/13 10:38:26;;;;;;;3.08;1.30;;;27.00;51.90;;;;;;5052353;28;20296;-63
2022/08/13 10:40:53;;;;;;;1.38;1.10;;;27.10;51.30;;;;;;5052424;28;20216;-61
2022/08/13 10:43:21;;;;;;;5.57;1.48;;;27.40;50.80;;;;;;5051993;28;20229;-64
2022/08/13 10:45:48;;;;;;;1.45;0.88;;;27.50;50.50;;;;;;5051951;28;20244;-63
2022/08/13 10:48:15;;;;;;;1.80;1.00;;;27.50;49.50;;;;;;5052076;28;20562;-62
2022/08/13 10:50:42;;;;;;;2.63;1.23;;;27.70;49.30;;;;;;5051905;28;20213;-63
2022/08/13 10:53:54;;;;;;;1.73;1.40;;;27.80;50.10;;;;;;5051583;28;20422;-65
2022/08/13 10:55:57;;;;;;;1.33;1.23;;;27.90;49.50;;;;;;5052188;28;20275;-60
2022/08/13 10:58:24;;;;;;;1.85;1.35;;;28.10;49.60;;;;;;5052833;28;20247;-60
2022/08/13 11:00:50;;;;;;;1.30;1.05;;;28.30;48.00;;;;;;5052916;28;20624;-61
2022/08/13 11:03:17;;;;;;;3.17;1.35;;;28.20;47.30;;;;;;5052678;28;20245;-61
2022/08/13 11:05:44;;;;;;;1.70;1.02;;;28.20;47.40;;;;;;5052758;28;20202;-61
2022/08/13 11:08:14;;;;;;;3.42;1.08;;;28.20;46.80;;;;;;5053174;28;20206;-61
2022/08/13 11:10:40;;;;;;;1.65;1.00;;;28.40;46.80;;;;;;5052879;28;20201;-60
2022/08/13 11:13:08;;;;;;;1.75;1.15;;;28.50;46.50;;;;;;5052860;28;20229;-60
2022/08/13 11:15:35;;;;;;;1.40;1.30;;;28.60;47.00;;;;;;5052755;28;20331;-60
2022/08/13 11:18:05;;;;;;;1.20;1.10;;;28.70;46.60;;;;;;5052764;28;20202;-60
2022/08/13 11:20:40;;;;;;;4.30;1.20;;;28.70;46.80;;;;;;5052748;28;20752;-61
2022/08/13 11:23:07;;;;;;;0.95;0.95;;;28.80;47.30;;;;;;5052268;28;20740;-60
2022/08/13 11:25:34;;;;;;;2.15;1.35;;;28.90;47.30;;;;;;5052453;28;20210;-62
2022/08/13 11:28:01;;;;;;;2.10;1.50;;;28.90;47.40;;;;;;5052589;28;20201;-61
2022/08/13 11:30:29;;;;;;;3.13;1.90;;;29.10;47.30;;;;;;5052384;28;20233;-60
2022/08/13 11:32:56;;;;;;;1.35;1.10;;;29.20;46.60;;;;;;5052352;28;20355;-60
2022/08/13 11:35:23;;;;;;;2.25;1.42;;;29.30;46.00;;;;;;5052108;28;20221;-61
2022/08/13 11:37:49;;;;;;;1.27;1.08;;;29.40;45.60;;;;;;5052185;28;20209;-62
2022/08/13 11:40:16;;;;;;;1.65;1.13;;;29.40;45.60;;;;;;5052445;28;20213;-62
2022/08/13 11:42:42;;;;;;;2.13;1.15;;;29.40;45.80;;;;;;5051836;28;20249;-61
2022/08/13 11:45:10;;;;;;;2.25;1.20;;;29.50;46.20;;;;;;5052515;28;20259;-61
2022/08/13 11:47:41;;;;;;;2.30;1.27;;;29.50;45.70;;;;;;5052509;28;20214;-61
2022/08/13 11:50:08;;;;;;;3.55;1.33;;;29.60;45.30;;;;;;5052378;28;20212;-60
2022/08/13 11:52:35;;;;;;;2.35;1.10;;;29.70;45.20;;;;;;5051744;28;20731;-62
2022/08/13 11:55:02;;;;;;;1.58;1.08;;;29.90;44.50;;;;;;5052347;28;20272;-60
2022/08/13 11:57:28;;;;;;;2.28;1.00;;;30.10;44.30;;;;;;5052519;28;20213;-60
2022/08/13 11:59:55;;;;;;;2.53;1.23;;;30.20;44.20;;;;;;5052312;28;20239;-61
2022/08/13 12:02:22;;;;;;;1.30;1.20;;;30.20;44.20;;;;;;5051884;28;20205;-61
2022/08/13 12:04:50;;;;;;;2.85;1.17;;;30.40;44.00;;;;;;5051926;28;20239;-60
2022/08/13 12:07:17;;;;;;;1.67;1.45;;;30.70;43.70;;;;;;5052515;28;20263;-60
2022/08/13 12:09:44;;;;;;;2.65;1.00;;;31.00;43.10;;;;;;5052645;28;20205;-62
2022/08/13 12:12:10;;;;;;;1.40;1.13;;;31.10;43.10;;;;;;5052226;28;20209;-62
2022/08/13 12:14:38;;;;;;;1.40;1.27;;;31.20;43.20;;;;;;5052795;28;20287;-61
2022/08/13 12:17:04;;;;;;;2.05;0.90;;;31.10;43.20;;;;;;5051999;28;20669;-60
2022/08/13 12:19:31;;;;;;;1.85;1.05;;;31.10;43.10;;;;;;5051982;28;20236;-62
2022/08/13 12:21:59;;;;;;;2.38;1.20;;;30.90;42.10;;;;;;5052089;28;20255;-62
2022/08/13 12:24:26;;;;;;;2.80;1.30;;;30.70;42.40;;;;;;5051605;28;20244;-62
2022/08/13 12:26:53;;;;;;;3.45;0.90;;;30.70;42.80;;;;;;5051928;28;20203;-61
2022/08/13 12:29:19;;;;;;;1.10;1.00;;;30.90;42.90;;;;;;5052175;28;20208;-61
2022/08/13 12:31:46;;;;;;;1.85;1.00;;;30.80;43.10;;;;;;5051793;28;20246;-61
2022/08/13 12:34:13;;;;;;;1.80;1.20;;;30.80;43.10;;;;;;5051300;28;20283;-61
2022/08/13 12:36:39;;;;;;;1.88;1.10;;;30.90;43.20;;;;;;5051417;28;20701;-61
2022/08/13 12:39:07;;;;;;;4.00;1.40;;;31.20;42.90;;;;;;5051861;28;20216;-62
2022/08/13 12:41:34;;;;;;;1.10;1.00;;;31.30;42.90;;;;;;5052091;28;20212;-63
2022/08/13 12:44:01;;;;;;;1.08;0.88;;;31.30;42.20;;;;;;5051244;28;20229;-62
2022/08/13 12:46:27;;;;;;;1.75;1.10;;;31.00;42.90;;;;;;5051394;28;20205;-61
2022/08/13 12:48:54;;;;;;;2.90;1.23;;;31.10;42.90;;;;;;5051510;28;20244;-60
2022/08/13 12:51:21;;;;;;;3.42;1.40;;;31.20;42.50;;;;;;5051355;28;20210;-62
2022/08/13 12:53:47;;;;;;;2.35;1.38;;;31.20;42.40;;;;;;5051214;28;20225;-61
2022/08/13 12:56:15;;;;;;;2.85;1.27;;;30.90;42.30;;;;;;5051230;28;20237;-60
2022/08/13 12:58:42;;;;;;;4.20;1.20;;;30.70;43.10;;;;;;5051209;28;20624;-61
2022/08/13 13:01:09;;;;;;;2.35;1.10;;;30.50;43.00;;;;;;5051885;28;20202;-62
2022/08/13 13:03:36;;;;;;;1.45;1.00;;;30.40;42.90;;;;;;5050914;28;20735;-62
2022/08/13 13:06:02;;;;;;;1.65;1.00;;;30.40;42.80;;;;;;5051598;28;20206;-61
2022/08/13 13:08:31;;;;;;;1.90;1.05;;;30.60;42.10;;;;;;5051411;28;20209;-63
2022/08/13 13:11:02;;;;;;;2.60;1.10;;;30.60;42.00;;;;;;5051409;28;20297;-60
2022/08/13 13:13:30;;;;;;;1.10;1.00;;;30.70;42.00;;;;;;5050899;28;20279;-62